sensor_id;sensor_type;location;lat;lon;timestamp;P1;durP1;ratioP1;P2;durP2;ratioP2
12373;SDS011;6251;51.762;8.660;2023-05-07T01:02:19;16.12;;;13.25;;
12373;SDS011;6251;51.762;8.660;2023-05-07T01:12:20;17.73;;;13.98;;
12373;SDS011;6251;51.762;8.660;2023-05-07T02:54:14;19.10;;;15.27;;
12373;SDS011;6251;51.762;8.660;2023-05-07T04:05:17;25.98;;;18.12;;
12373;SDS011;6251;51.762;8.660;2023-05-07T04:15:18;27.92;;;20.30;;
12373;SDS011;6251;51.762;8.660;2023-05-07T04:25:18;29.10;;;19.33;;
12373;SDS011;6251;51.762;8.660;2023-05-07T04:35:19;27.42;;;19.70;;
12373;SDS011;6251;51.762;8.660;2023-05-07T04:45:19;28.45;;;18.40;;
12373;SDS011;6251;51.762;8.660;2023-05-07T04:55:20;27.98;;;19.00;;
12373;SDS011;6251;51.762;8.660;2023-05-07T05:05:21;27.15;;;18.98;;
12373;SDS011;6251;51.762;8.660;2023-05-07T05:15:22;27.37;;;18.52;;
12373;SDS011;6251;51.762;8.660;2023-05-07T05:25:22;26.45;;;17.73;;
12373;SDS011;6251;51.762;8.660;2023-05-07T05:35:23;25.30;;;18.30;;
12373;SDS011;6251;51.762;8.660;2023-05-07T05:45:23;25.45;;;18.25;;
12373;SDS011;6251;51.762;8.660;2023-05-07T05:55:24;24.33;;;17.20;;
12373;SDS011;6251;51.762;8.660;2023-05-07T06:05:25;24.63;;;16.70;;
12373;SDS011;6251;51.762;8.660;2023-05-07T06:15:25;22.08;;;15.43;;
12373;SDS011;6251;51.762;8.660;2023-05-07T06:25:26;20.23;;;14.50;;
12373;SDS011;6251;51.762;8.660;2023-05-07T06:35:26;20.48;;;14.25;;
12373;SDS011;6251;51.762;8.660;2023-05-07T06:45:27;18.42;;;13.95;;
12373;SDS011;6251;51.762;8.660;2023-05-07T06:55:27;16.45;;;13.40;;
12373;SDS011;6251;51.762;8.660;2023-05-07T07:05:28;15.63;;;12.35;;
12373;SDS011;6251;51.762;8.660;2023-05-07T07:15:29;16.60;;;13.10;;
12373;SDS011;6251;51.762;8.660;2023-05-07T07:25:29;16.98;;;12.75;;
12373;SDS011;6251;51.762;8.660;2023-05-07T07:35:30;12.07;;;10.73;;
12373;SDS011;6251;51.762;8.660;2023-05-07T07:45:34;11.52;;;10.30;;
12373;SDS011;6251;51.762;8.660;2023-05-07T07:55:41;12.80;;;10.15;;
12373;SDS011;6251;51.762;8.660;2023-05-07T08:05:41;11.02;;;9.32;;
12373;SDS011;6251;51.762;8.660;2023-05-07T08:15:42;9.70;;;8.73;;
12373;SDS011;6251;51.762;8.660;2023-05-07T08:25:43;9.80;;;8.80;;
12373;SDS011;6251;51.762;8.660;2023-05-07T08:35:43;12.57;;;10.13;;
12373;SDS011;6251;51.762;8.660;2023-05-07T08:45:45;11.38;;;8.40;;
12373;SDS011;6251;51.762;8.660;2023-05-07T08:55:45;11.65;;;9.43;;
12373;SDS011;6251;51.762;8.660;2023-05-07T09:05:47;11.02;;;9.32;;
12373;SDS011;6251;51.762;8.660;2023-05-07T09:15:48;11.55;;;9.35;;
12373;SDS011;6251;51.762;8.660;2023-05-07T09:25:49;11.02;;;8.68;;
12373;SDS011;6251;51.762;8.660;2023-05-07T09:35:52;9.90;;;8.90;;
12373;SDS011;6251;51.762;8.660;2023-05-07T09:45:53;11.68;;;9.10;;
12373;SDS011;6251;51.762;8.660;2023-05-07T09:55:54;9.70;;;8.43;;
12373;SDS011;6251;51.762;8.660;2023-05-07T10:05:57;8.77;;;7.87;;
12373;SDS011;6251;51.762;8.660;2023-05-07T10:15:59;9.48;;;8.57;;
12373;SDS011;6251;51.762;8.660;2023-05-07T10:26:04;8.63;;;7.82;;
12373;SDS011;6251;51.762;8.660;2023-05-07T10:36:08;7.60;;;6.90;;
12373;SDS011;6251;51.762;8.660;2023-05-07T10:46:09;8.32;;;7.50;;
12373;SDS011;6251;51.762;8.660;2023-05-07T11:06:18;7.78;;;7.07;;
12373;SDS011;6251;51.762;8.660;2023-05-07T11:16:19;7.12;;;6.43;;
12373;SDS011;6251;51.762;8.660;2023-05-07T11:26:22;7.93;;;7.12;;
12373;SDS011;6251;51.762;8.660;2023-05-07T11:36:23;9.20;;;8.18;;
12373;SDS011;6251;51.762;8.660;2023-05-07T11:46:25;7.00;;;6.40;;
12373;SDS011;6251;51.762;8.660;2023-05-07T11:56:27;6.05;;;5.55;;
12373;SDS011;6251;51.762;8.660;2023-05-07T12:06:27;7.10;;;6.43;;
12373;SDS011;6251;51.762;8.660;2023-05-07T12:16:28;5.50;;;5.00;;
12373;SDS011;6251;51.762;8.660;2023-05-07T12:26:29;5.32;;;4.82;;
12373;SDS011;6251;51.762;8.660;2023-05-07T12:36:37;5.10;;;4.70;;
12373;SDS011;6251;51.762;8.660;2023-05-07T12:46:38;5.00;;;4.60;;
12373;SDS011;6251;51.762;8.660;2023-05-07T12:56:39;5.07;;;4.28;;
12373;SDS011;6251;51.762;8.660;2023-05-07T13:06:40;5.60;;;5.10;;
12373;SDS011;6251;51.762;8.660;2023-05-07T13:16:40;4.82;;;4.35;;
12373;SDS011;6251;51.762;8.660;2023-05-07T13:26:41;5.12;;;4.72;;
12373;SDS011;6251;51.762;8.660;2023-05-07T13:36:42;5.03;;;4.72;;
12373;SDS011;6251;51.762;8.660;2023-05-07T13:46:42;5.78;;;5.28;;
12373;SDS011;6251;51.762;8.660;2023-05-07T13:56:43;6.45;;;5.95;;
12373;SDS011;6251;51.762;8.660;2023-05-07T14:06:43;7.00;;;6.30;;
12373;SDS011;6251;51.762;8.660;2023-05-07T14:16:44;7.60;;;6.90;;
12373;SDS011;6251;51.762;8.660;2023-05-07T14:26:45;8.13;;;7.43;;
12373;SDS011;6251;51.762;8.660;2023-05-07T14:36:46;8.57;;;7.80;;
12373;SDS011;6251;51.762;8.660;2023-05-07T14:46:46;8.95;;;8.05;;
12373;SDS011;6251;51.762;8.660;2023-05-07T14:56:48;9.32;;;8.20;;
12373;SDS011;6251;51.762;8.660;2023-05-07T15:06:48;9.25;;;8.45;;
12373;SDS011;6251;51.762;8.660;2023-05-07T15:16:49;9.25;;;8.35;;
12373;SDS011;6251;51.762;8.660;2023-05-07T15:26:51;8.98;;;8.10;;
12373;SDS011;6251;51.762;8.660;2023-05-07T15:36:52;10.05;;;9.15;;
12373;SDS011;6251;51.762;8.660;2023-05-07T15:46:53;10.27;;;9.13;;
12373;SDS011;6251;51.762;8.660;2023-05-07T15:56:54;10.80;;;9.80;;
12373;SDS011;6251;51.762;8.660;2023-05-07T16:06:54;9.52;;;8.70;;
12373;SDS011;6251;51.762;8.660;2023-05-07T16:16:55;9.20;;;8.40;;
12373;SDS011;6251;51.762;8.660;2023-05-07T16:26:56;9.50;;;8.57;;
12373;SDS011;6251;51.762;8.660;2023-05-07T16:36:57;8.98;;;8.18;;
12373;SDS011;6251;51.762;8.660;2023-05-07T16:46:57;9.35;;;8.45;;
12373;SDS011;6251;51.762;8.660;2023-05-07T16:56:58;9.57;;;8.60;;
12373;SDS011;6251;51.762;8.660;2023-05-07T17:06:58;8.25;;;7.50;;
12373;SDS011;6251;51.762;8.660;2023-05-07T17:16:59;9.02;;;8.23;;
12373;SDS011;6251;51.762;8.660;2023-05-07T17:27:00;9.65;;;8.75;;
12373;SDS011;6251;51.762;8.660;2023-05-07T17:37:00;11.77;;;8.60;;
12373;SDS011;6251;51.762;8.660;2023-05-07T17:47:01;8.98;;;8.18;;
12373;SDS011;6251;51.762;8.660;2023-05-07T17:57:02;10.32;;;9.40;;
12373;SDS011;6251;51.762;8.660;2023-05-07T18:07:03;9.33;;;8.40;;
12373;SDS011;6251;51.762;8.660;2023-05-07T18:17:04;10.57;;;9.48;;
12373;SDS011;6251;51.762;8.660;2023-05-07T18:27:04;9.95;;;8.95;;
12373;SDS011;6251;51.762;8.660;2023-05-07T18:37:05;10.60;;;9.55;;
12373;SDS011;6251;51.762;8.660;2023-05-07T18:47:06;10.23;;;9.32;;
12373;SDS011;6251;51.762;8.660;2023-05-07T18:57:06;10.38;;;9.40;;
12373;SDS011;6251;51.762;8.660;2023-05-07T19:07:07;8.95;;;8.15;;
12373;SDS011;6251;51.762;8.660;2023-05-07T19:17:08;9.27;;;8.38;;
12373;SDS011;6251;51.762;8.660;2023-05-07T19:27:09;8.82;;;8.13;;
12373;SDS011;6251;51.762;8.660;2023-05-07T19:37:10;8.90;;;8.10;;
12373;SDS011;6251;51.762;8.660;2023-05-07T19:47:10;9.57;;;8.68;;
12373;SDS011;6251;51.762;8.660;2023-05-07T19:57:11;8.90;;;8.10;;
12373;SDS011;6251;51.762;8.660;2023-05-07T20:07:12;8.88;;;8.07;;
12373;SDS011;6251;51.762;8.660;2023-05-07T20:17:12;8.70;;;7.85;;
12373;SDS011;6251;51.762;8.660;2023-05-07T20:27:13;9.30;;;8.50;;
12373;SDS011;6251;51.762;8.660;2023-05-07T20:37:14;8.57;;;7.78;;
12373;SDS011;6251;51.762;8.660;2023-05-07T20:47:15;7.78;;;7.05;;
12373;SDS011;6251;51.762;8.660;2023-05-07T20:57:16;8.60;;;7.80;;
12373;SDS011;6251;51.762;8.660;2023-05-07T23:09:22;6.95;;;6.35;;
